sensor_id;sensor_type;location;lat;lon;timestamp;temperature;humidity
31113;DHT22;17763;48.730;9.136;2023-07-09T00:02:17;23.00;68.90
31113;DHT22;17763;48.730;9.136;2023-07-09T00:04:43;22.90;69.00
31113;DHT22;17763;48.730;9.136;2023-07-09T00:07:28;22.90;69.10
31113;DHT22;17763;48.730;9.136;2023-07-09T00:09:55;22.90;69.20
31113;DHT22;17763;48.730;9.136;2023-07-09T00:12:21;22.80;69.20
31113;DHT22;17763;48.730;9.136;2023-07-09T00:14:47;22.80;69.50
31113;DHT22;17763;48.730;9.136;2023-07-09T00:17:23;22.80;69.70
31113;DHT22;17763;48.730;9.136;2023-07-09T00:19:49;22.80;69.90
31113;DHT22;17763;48.730;9.136;2023-07-09T00:22:16;22.70;69.90
31113;DHT22;17763;48.730;9.136;2023-07-09T00:24:44;22.70;70.10
31113;DHT22;17763;48.730;9.136;2023-07-09T00:27:11;22.60;70.20
31113;DHT22;17763;48.730;9.136;2023-07-09T00:29:37;22.60;70.60
31113;DHT22;17763;48.730;9.136;2023-07-09T00:32:03;22.50;70.90
31113;DHT22;17763;48.730;9.136;2023-07-09T00:34:30;22.50;71.10
31113;DHT22;17763;48.730;9.136;2023-07-09T00:36:59;22.50;71.00
31113;DHT22;17763;48.730;9.136;2023-07-09T00:39:24;22.40;71.00
31113;DHT22;17763;48.730;9.136;2023-07-09T00:41:52;22.40;71.00
31113;DHT22;17763;48.730;9.136;2023-07-09T00:51:52;22.30;69.90
31113;DHT22;17763;48.730;9.136;2023-07-09T00:54:28;22.30;69.60
31113;DHT22;17763;48.730;9.136;2023-07-09T00:56:58;22.30;69.30
31113;DHT22;17763;48.730;9.136;2023-07-09T00:59:26;22.20;69.10
31113;DHT22;17763;48.730;9.136;2023-07-09T01:01:55;22.20;69.20
31113;DHT22;17763;48.730;9.136;2023-07-09T01:04:24;22.20;69.30
31113;DHT22;17763;48.730;9.136;2023-07-09T01:06:57;22.20;69.60
31113;DHT22;17763;48.730;9.136;2023-07-09T01:09:24;22.10;70.10
31113;DHT22;17763;48.730;9.136;2023-07-09T01:11:50;22.20;70.90
31113;DHT22;17763;48.730;9.136;2023-07-09T01:14:22;22.20;71.80
31113;DHT22;17763;48.730;9.136;2023-07-09T01:17:02;22.10;72.60
31113;DHT22;17763;48.730;9.136;2023-07-09T01:19:30;22.10;72.70
31113;DHT22;17763;48.730;9.136;2023-07-09T01:21:57;22.10;72.20
31113;DHT22;17763;48.730;9.136;2023-07-09T01:27:13;22.00;72.00
31113;DHT22;17763;48.730;9.136;2023-07-09T01:29:39;22.00;72.40
31113;DHT22;17763;48.730;9.136;2023-07-09T01:32:07;22.00;72.80
31113;DHT22;17763;48.730;9.136;2023-07-09T01:34:33;22.00;73.30
31113;DHT22;17763;48.730;9.136;2023-07-09T01:36:59;22.00;74.10
31113;DHT22;17763;48.730;9.136;2023-07-09T01:39:27;22.00;74.20
31113;DHT22;17763;48.730;9.136;2023-07-09T01:41:55;22.00;73.40
31113;DHT22;17763;48.730;9.136;2023-07-09T01:44:22;22.00;73.20
31113;DHT22;17763;48.730;9.136;2023-07-09T01:46:49;22.00;72.80
31113;DHT22;17763;48.730;9.136;2023-07-09T01:49:14;22.00;72.30
31113;DHT22;17763;48.730;9.136;2023-07-09T01:51:43;22.00;72.20
31113;DHT22;17763;48.730;9.136;2023-07-09T01:54:08;22.00;72.80
31113;DHT22;17763;48.730;9.136;2023-07-09T01:56:34;21.90;73.30
31113;DHT22;17763;48.730;9.136;2023-07-09T01:59:03;21.90;73.60
31113;DHT22;17763;48.730;9.136;2023-07-09T02:01:30;21.90;73.90
31113;DHT22;17763;48.730;9.136;2023-07-09T02:03:59;21.80;73.90
31113;DHT22;17763;48.730;9.136;2023-07-09T02:06:24;21.10;73.80
31113;DHT22;17763;48.730;9.136;2023-07-09T02:08:57;21.70;74.10
31113;DHT22;17763;48.730;9.136;2023-07-09T02:11:24;21.70;73.70
31113;DHT22;17763;48.730;9.136;2023-07-09T02:13:49;21.70;73.60
31113;DHT22;17763;48.730;9.136;2023-07-09T02:16:15;21.70;73.90
31113;DHT22;17763;48.730;9.136;2023-07-09T02:18:41;21.70;74.20
31113;DHT22;17763;48.730;9.136;2023-07-09T02:21:06;21.60;74.50
31113;DHT22;17763;48.730;9.136;2023-07-09T02:23:32;21.60;74.90
31113;DHT22;17763;48.730;9.136;2023-07-09T02:25:58;21.60;75.20
31113;DHT22;17763;48.730;9.136;2023-07-09T02:28:23;21.50;75.30
31113;DHT22;17763;48.730;9.136;2023-07-09T02:30:51;21.50;75.50
31113;DHT22;17763;48.730;9.136;2023-07-09T02:33:18;21.50;75.70
31113;DHT22;17763;48.730;9.136;2023-07-09T02:35:45;21.40;76.00
31113;DHT22;17763;48.730;9.136;2023-07-09T02:38:11;21.30;76.30
31113;DHT22;17763;48.730;9.136;2023-07-09T02:40:37;21.40;76.70
31113;DHT22;17763;48.730;9.136;2023-07-09T02:43:04;21.30;76.90
31113;DHT22;17763;48.730;9.136;2023-07-09T02:45:29;21.30;77.10
31113;DHT22;17763;48.730;9.136;2023-07-09T02:47:57;21.30;77.40
31113;DHT22;17763;48.730;9.136;2023-07-09T02:50:25;21.30;77.80
31113;DHT22;17763;48.730;9.136;2023-07-09T02:52:51;21.20;78.10
31113;DHT22;17763;48.730;9.136;2023-07-09T02:55:16;21.20;78.50
31113;DHT22;17763;48.730;9.136;2023-07-09T02:57:44;21.20;79.00
31113;DHT22;17763;48.730;9.136;2023-07-09T03:00:10;21.20;79.40
31113;DHT22;17763;48.730;9.136;2023-07-09T03:02:36;21.10;79.60
31113;DHT22;17763;48.730;9.136;2023-07-09T03:05:02;21.10;79.90
31113;DHT22;17763;48.730;9.136;2023-07-09T03:07:27;21.10;80.20
31113;DHT22;17763;48.730;9.136;2023-07-09T03:09:53;21.10;80.50
31113;DHT22;17763;48.730;9.136;2023-07-09T03:12:19;21.10;80.90
31113;DHT22;17763;48.730;9.136;2023-07-09T03:14:48;21.10;81.20
31113;DHT22;17763;48.730;9.136;2023-07-09T03:17:14;21.00;81.60
31113;DHT22;17763;48.730;9.136;2023-07-09T03:19:40;21.00;82.10
31113;DHT22;17763;48.730;9.136;2023-07-09T03:22:05;20.90;82.60
31113;DHT22;17763;48.730;9.136;2023-07-09T03:24:31;20.90;83.20
31113;DHT22;17763;48.730;9.136;2023-07-09T03:26:57;20.80;83.60
31113;DHT22;17763;48.730;9.136;2023-07-09T03:29:22;20.80;84.10
31113;DHT22;17763;48.730;9.136;2023-07-09T03:31:48;20.80;84.50
31113;DHT22;17763;48.730;9.136;2023-07-09T03:34:14;20.80;84.90
31113;DHT22;17763;48.730;9.136;2023-07-09T03:36:43;20.80;85.20
31113;DHT22;17763;48.730;9.136;2023-07-09T03:39:09;20.80;85.60
31113;DHT22;17763;48.730;9.136;2023-07-09T03:41:34;20.80;86.20
31113;DHT22;17763;48.730;9.136;2023-07-09T03:44:02;20.70;86.80
31113;DHT22;17763;48.730;9.136;2023-07-09T03:46:28;20.70;87.40
31113;DHT22;17763;48.730;9.136;2023-07-09T03:48:54;20.70;88.00
31113;DHT22;17763;48.730;9.136;2023-07-09T03:51:20;20.70;88.50
31113;DHT22;17763;48.730;9.136;2023-07-09T03:53:46;20.70;89.20
31113;DHT22;17763;48.730;9.136;2023-07-09T03:56:14;20.60;89.80
31113;DHT22;17763;48.730;9.136;2023-07-09T03:58:40;20.60;90.20
31113;DHT22;17763;48.730;9.136;2023-07-09T04:01:05;20.60;90.60
31113;DHT22;17763;48.730;9.136;2023-07-09T04:03:31;20.60;90.80
31113;DHT22;17763;48.730;9.136;2023-07-09T04:05:57;20.90;90.70
31113;DHT22;17763;48.730;9.136;2023-07-09T04:08:29;21.10;90.40
31113;DHT22;17763;48.730;9.136;2023-07-09T04:10:59;21.20;90.10
31113;DHT22;17763;48.730;9.136;2023-07-09T04:13:25;21.30;89.20
31113;DHT22;17763;48.730;9.136;2023-07-09T04:15:52;21.30;89.10
31113;DHT22;17763;48.730;9.136;2023-07-09T04:18:21;21.20;89.20
31113;DHT22;17763;48.730;9.136;2023-07-09T04:20:50;21.10;89.50
31113;DHT22;17763;48.730;9.136;2023-07-09T04:23:21;21.10;90.00
31113;DHT22;17763;48.730;9.136;2023-07-09T04:25:47;21.10;90.20
31113;DHT22;17763;48.730;9.136;2023-07-09T04:28:19;21.10;90.30
31113;DHT22;17763;48.730;9.136;2023-07-09T04:30:51;21.10;90.40
31113;DHT22;17763;48.730;9.136;2023-07-09T04:33:20;21.10;90.30
31113;DHT22;17763;48.730;9.136;2023-07-09T04:35:46;21.20;90.30
31113;DHT22;17763;48.730;9.136;2023-07-09T04:38:13;21.20;90.30
31113;DHT22;17763;48.730;9.136;2023-07-09T04:40:39;21.20;90.40
31113;DHT22;17763;48.730;9.136;2023-07-09T04:43:07;21.30;90.50
31113;DHT22;17763;48.730;9.136;2023-07-09T04:45:35;21.40;90.60
31113;DHT22;17763;48.730;9.136;2023-07-09T04:48:01;21.40;90.60
31113;DHT22;17763;48.730;9.136;2023-07-09T04:50:26;21.50;90.60
31113;DHT22;17763;48.730;9.136;2023-07-09T04:52:55;21.60;90.50
31113;DHT22;17763;48.730;9.136;2023-07-09T04:55:22;21.60;90.30
31113;DHT22;17763;48.730;9.136;2023-07-09T04:57:52;21.80;90.10
31113;DHT22;17763;48.730;9.136;2023-07-09T05:00:18;21.80;89.90
31113;DHT22;17763;48.730;9.136;2023-07-09T05:02:43;21.90;89.50
31113;DHT22;17763;48.730;9.136;2023-07-09T05:05:09;22.00;89.20
31113;DHT22;17763;48.730;9.136;2023-07-09T05:07:36;22.10;88.90
31113;DHT22;17763;48.730;9.136;2023-07-09T05:10:02;22.20;88.70
31113;DHT22;17763;48.730;9.136;2023-07-09T05:12:27;22.30;88.50
31113;DHT22;17763;48.730;9.136;2023-07-09T05:14:56;22.40;88.20
31113;DHT22;17763;48.730;9.136;2023-07-09T05:17:22;22.50;88.00
31113;DHT22;17763;48.730;9.136;2023-07-09T05:19:52;22.60;86.90
31113;DHT22;17763;48.730;9.136;2023-07-09T05:22:18;22.70;86.30
31113;DHT22;17763;48.730;9.136;2023-07-09T05:24:45;22.80;85.90
31113;DHT22;17763;48.730;9.136;2023-07-09T05:27:11;22.90;85.30
31113;DHT22;17763;48.730;9.136;2023-07-09T05:29:37;23.00;84.60
31113;DHT22;17763;48.730;9.136;2023-07-09T05:32:05;23.10;84.00
31113;DHT22;17763;48.730;9.136;2023-07-09T05:34:33;23.20;83.30
31113;DHT22;17763;48.730;9.136;2023-07-09T05:36:58;23.20;82.90
31113;DHT22;17763;48.730;9.136;2023-07-09T05:39:24;23.40;83.00
31113;DHT22;17763;48.730;9.136;2023-07-09T05:41:49;23.50;82.50
31113;DHT22;17763;48.730;9.136;2023-07-09T05:44:15;23.70;81.90
31113;DHT22;17763;48.730;9.136;2023-07-09T05:46:41;23.80;81.60
31113;DHT22;17763;48.730;9.136;2023-07-09T05:49:09;24.00;81.50
31113;DHT22;17763;48.730;9.136;2023-07-09T05:51:35;24.10;80.90
31113;DHT22;17763;48.730;9.136;2023-07-09T05:54:03;24.30;80.80
31113;DHT22;17763;48.730;9.136;2023-07-09T05:56:28;24.40;80.40
31113;DHT22;17763;48.730;9.136;2023-07-09T05:58:54;24.50;80.00
31113;DHT22;17763;48.730;9.136;2023-07-09T06:01:22;24.60;79.50
31113;DHT22;17763;48.730;9.136;2023-07-09T06:03:48;24.80;79.00
31113;DHT22;17763;48.730;9.136;2023-07-09T06:06:14;24.90;78.40
31113;DHT22;17763;48.730;9.136;2023-07-09T06:08:42;25.10;77.90
31113;DHT22;17763;48.730;9.136;2023-07-09T06:11:08;25.20;77.40
31113;DHT22;17763;48.730;9.136;2023-07-09T06:13:36;25.40;77.30
31113;DHT22;17763;48.730;9.136;2023-07-09T06:16:03;25.50;76.50
31113;DHT22;17763;48.730;9.136;2023-07-09T06:18:28;25.70;76.00
31113;DHT22;17763;48.730;9.136;2023-07-09T06:20:59;25.70;75.30
31113;DHT22;17763;48.730;9.136;2023-07-09T06:23:25;25.90;74.90
31113;DHT22;17763;48.730;9.136;2023-07-09T06:25:51;26.10;74.60
31113;DHT22;17763;48.730;9.136;2023-07-09T06:28:20;26.20;74.10
31113;DHT22;17763;48.730;9.136;2023-07-09T06:30:49;26.40;73.40
31113;DHT22;17763;48.730;9.136;2023-07-09T06:33:16;26.50;72.70
31113;DHT22;17763;48.730;9.136;2023-07-09T06:35:58;26.60;72.20
31113;DHT22;17763;48.730;9.136;2023-07-09T06:38:24;26.70;71.80
31113;DHT22;17763;48.730;9.136;2023-07-09T06:40:50;26.90;71.50
31113;DHT22;17763;48.730;9.136;2023-07-09T06:43:20;27.00;70.60
31113;DHT22;17763;48.730;9.136;2023-07-09T06:45:55;27.20;70.10
31113;DHT22;17763;48.730;9.136;2023-07-09T06:48:25;27.30;69.60
31113;DHT22;17763;48.730;9.136;2023-07-09T06:50:53;27.40;69.30
31113;DHT22;17763;48.730;9.136;2023-07-09T06:53:22;27.60;68.60
31113;DHT22;17763;48.730;9.136;2023-07-09T06:55:48;27.70;67.70
31113;DHT22;17763;48.730;9.136;2023-07-09T06:58:18;27.80;67.10
31113;DHT22;17763;48.730;9.136;2023-07-09T07:00:45;28.00;66.30
31113;DHT22;17763;48.730;9.136;2023-07-09T07:03:11;28.00;65.90
31113;DHT22;17763;48.730;9.136;2023-07-09T07:05:45;28.10;65.80
31113;DHT22;17763;48.730;9.136;2023-07-09T07:08:15;28.20;65.70
31113;DHT22;17763;48.730;9.136;2023-07-09T07:10:41;28.30;65.10
31113;DHT22;17763;48.730;9.136;2023-07-09T07:13:08;28.40;64.60
31113;DHT22;17763;48.730;9.136;2023-07-09T07:15:36;28.50;64.30
31113;DHT22;17763;48.730;9.136;2023-07-09T07:18:05;28.60;63.90
31113;DHT22;17763;48.730;9.136;2023-07-09T07:20:31;28.70;63.80
31113;DHT22;17763;48.730;9.136;2023-07-09T07:22:57;28.80;63.50
31113;DHT22;17763;48.730;9.136;2023-07-09T07:25:23;28.90;63.10
31113;DHT22;17763;48.730;9.136;2023-07-09T07:27:49;29.00;62.60
31113;DHT22;17763;48.730;9.136;2023-07-09T07:30:17;29.10;62.30
31113;DHT22;17763;48.730;9.136;2023-07-09T07:32:45;29.10;62.10
31113;DHT22;17763;48.730;9.136;2023-07-09T07:35:12;29.30;62.20
31113;DHT22;17763;48.730;9.136;2023-07-09T07:37:41;29.40;62.40
31113;DHT22;17763;48.730;9.136;2023-07-09T07:40:10;29.40;62.10
31113;DHT22;17763;48.730;9.136;2023-07-09T07:42:36;29.50;61.70
31113;DHT22;17763;48.730;9.136;2023-07-09T07:45:03;29.50;61.20
31113;DHT22;17763;48.730;9.136;2023-07-09T07:47:29;29.60;60.90
31113;DHT22;17763;48.730;9.136;2023-07-09T07:49:56;29.70;60.40
31113;DHT22;17763;48.730;9.136;2023-07-09T07:52:22;29.80;60.90
31113;DHT22;17763;48.730;9.136;2023-07-09T07:54:48;29.80;61.00
31113;DHT22;17763;48.730;9.136;2023-07-09T07:57:14;29.80;60.90
31113;DHT22;17763;48.730;9.136;2023-07-09T07:59:42;29.90;60.90
31113;DHT22;17763;48.730;9.136;2023-07-09T08:02:11;30.00;61.00
31113;DHT22;17763;48.730;9.136;2023-07-09T08:04:38;30.00;60.40
31113;DHT22;17763;48.730;9.136;2023-07-09T08:07:04;30.10;60.10
31113;DHT22;17763;48.730;9.136;2023-07-09T08:09:30;30.20;60.40
31113;DHT22;17763;48.730;9.136;2023-07-09T08:11:55;30.20;60.00
31113;DHT22;17763;48.730;9.136;2023-07-09T08:14:21;30.30;59.80
31113;DHT22;17763;48.730;9.136;2023-07-09T08:16:49;30.40;59.60
31113;DHT22;17763;48.730;9.136;2023-07-09T08:19:21;30.40;58.50
31113;DHT22;17763;48.730;9.136;2023-07-09T08:21:47;30.50;58.40
31113;DHT22;17763;48.730;9.136;2023-07-09T08:24:13;30.40;58.00
31113;DHT22;17763;48.730;9.136;2023-07-09T08:26:40;30.30;57.70
31113;DHT22;17763;48.730;9.136;2023-07-09T08:29:05;30.30;58.70
31113;DHT22;17763;48.730;9.136;2023-07-09T08:31:31;30.30;58.20
31113;DHT22;17763;48.730;9.136;2023-07-09T08:33:59;30.40;57.50
31113;DHT22;17763;48.730;9.136;2023-07-09T08:36:25;30.50;57.60
31113;DHT22;17763;48.730;9.136;2023-07-09T08:38:50;30.50;57.70
31113;DHT22;17763;48.730;9.136;2023-07-09T08:44:14;30.70;58.00
31113;DHT22;17763;48.730;9.136;2023-07-09T08:49:24;30.90;56.40
31113;DHT22;17763;48.730;9.136;2023-07-09T08:51:52;31.00;56.30
31113;DHT22;17763;48.730;9.136;2023-07-09T08:54:34;31.00;55.90
31113;DHT22;17763;48.730;9.136;2023-07-09T08:57:20;31.10;55.90
31113;DHT22;17763;48.730;9.136;2023-07-09T08:59:48;31.20;55.10
31113;DHT22;17763;48.730;9.136;2023-07-09T09:02:38;31.30;55.50
31113;DHT22;17763;48.730;9.136;2023-07-09T09:05:05;31.30;56.10
31113;DHT22;17763;48.730;9.136;2023-07-09T09:07:42;31.40;56.00
31113;DHT22;17763;48.730;9.136;2023-07-09T09:10:21;31.20;54.80
31113;DHT22;17763;48.730;9.136;2023-07-09T09:12:59;31.20;55.30
31113;DHT22;17763;48.730;9.136;2023-07-09T09:15:27;31.30;54.90
31113;DHT22;17763;48.730;9.136;2023-07-09T09:17:57;31.30;54.20
31113;DHT22;17763;48.730;9.136;2023-07-09T09:20:25;31.40;53.60
31113;DHT22;17763;48.730;9.136;2023-07-09T09:25:36;31.40;53.50
31113;DHT22;17763;48.730;9.136;2023-07-09T09:28:03;31.50;53.40
31113;DHT22;17763;48.730;9.136;2023-07-09T09:30:29;31.60;53.90
31113;DHT22;17763;48.730;9.136;2023-07-09T09:32:56;31.70;53.00
31113;DHT22;17763;48.730;9.136;2023-07-09T09:35:32;31.70;52.60
31113;DHT22;17763;48.730;9.136;2023-07-09T09:37:59;31.70;52.70
31113;DHT22;17763;48.730;9.136;2023-07-09T09:40:29;31.70;52.30
31113;DHT22;17763;48.730;9.136;2023-07-09T09:42:58;31.70;51.90
31113;DHT22;17763;48.730;9.136;2023-07-09T09:45:31;31.80;51.30
31113;DHT22;17763;48.730;9.136;2023-07-09T09:48:00;31.90;50.50
31113;DHT22;17763;48.730;9.136;2023-07-09T09:50:30;32.00;49.90
31113;DHT22;17763;48.730;9.136;2023-07-09T09:52:57;32.00;49.60
31113;DHT22;17763;48.730;9.136;2023-07-09T09:55:27;32.00;49.30
31113;DHT22;17763;48.730;9.136;2023-07-09T09:57:54;32.10;49.30
31113;DHT22;17763;48.730;9.136;2023-07-09T10:00:25;32.10;49.50
31113;DHT22;17763;48.730;9.136;2023-07-09T10:03:00;32.20;49.80
31113;DHT22;17763;48.730;9.136;2023-07-09T10:05:42;32.20;48.90
31113;DHT22;17763;48.730;9.136;2023-07-09T10:11:24;32.20;48.60
31113;DHT22;17763;48.730;9.136;2023-07-09T10:14:01;32.20;48.40
31113;DHT22;17763;48.730;9.136;2023-07-09T10:16:37;32.30;48.50
31113;DHT22;17763;48.730;9.136;2023-07-09T10:19:28;32.30;49.00
31113;DHT22;17763;48.730;9.136;2023-07-09T10:22:13;32.30;48.50
31113;DHT22;17763;48.730;9.136;2023-07-09T10:25:15;32.30;49.70
31113;DHT22;17763;48.730;9.136;2023-07-09T10:33:34;32.50;48.60
31113;DHT22;17763;48.730;9.136;2023-07-09T10:36:17;32.50;48.80
31113;DHT22;17763;48.730;9.136;2023-07-09T10:39:05;32.70;48.80
31113;DHT22;17763;48.730;9.136;2023-07-09T10:41:35;32.70;48.00
31113;DHT22;17763;48.730;9.136;2023-07-09T10:44:22;32.70;47.00
31113;DHT22;17763;48.730;9.136;2023-07-09T10:46:52;32.80;46.90
31113;DHT22;17763;48.730;9.136;2023-07-09T10:49:19;32.70;46.00
31113;DHT22;17763;48.730;9.136;2023-07-09T10:52:04;32.70;46.10
31113;DHT22;17763;48.730;9.136;2023-07-09T10:54:48;32.70;45.80
31113;DHT22;17763;48.730;9.136;2023-07-09T10:57:25;32.70;44.90
31113;DHT22;17763;48.730;9.136;2023-07-09T10:59:53;32.90;45.30
31113;DHT22;17763;48.730;9.136;2023-07-09T11:02:26;32.90;44.10
31113;DHT22;17763;48.730;9.136;2023-07-09T11:05:00;32.90;43.60
31113;DHT22;17763;48.730;9.136;2023-07-09T11:10:27;32.90;44.80
31113;DHT22;17763;48.730;9.136;2023-07-09T11:13:01;32.90;44.30
31113;DHT22;17763;48.730;9.136;2023-07-09T11:15:33;33.00;43.80
31113;DHT22;17763;48.730;9.136;2023-07-09T11:18:00;33.00;43.90
31113;DHT22;17763;48.730;9.136;2023-07-09T11:20:36;33.10;44.10
31113;DHT22;17763;48.730;9.136;2023-07-09T11:25:41;33.00;42.90
31113;DHT22;17763;48.730;9.136;2023-07-09T11:28:07;33.00;43.80
31113;DHT22;17763;48.730;9.136;2023-07-09T11:30:52;33.10;43.10
31113;DHT22;17763;48.730;9.136;2023-07-09T11:33:20;33.10;42.50
31113;DHT22;17763;48.730;9.136;2023-07-09T11:35:50;33.10;41.70
31113;DHT22;17763;48.730;9.136;2023-07-09T11:38:24;33.20;41.10
31113;DHT22;17763;48.730;9.136;2023-07-09T11:40:52;33.20;41.20
31113;DHT22;17763;48.730;9.136;2023-07-09T11:43:35;33.30;41.20
31113;DHT22;17763;48.730;9.136;2023-07-09T11:46:20;33.30;41.00
31113;DHT22;17763;48.730;9.136;2023-07-09T11:48:48;33.40;41.30
31113;DHT22;17763;48.730;9.136;2023-07-09T11:51:17;33.40;40.10
31113;DHT22;17763;48.730;9.136;2023-07-09T11:53:49;33.50;40.90
31113;DHT22;17763;48.730;9.136;2023-07-09T11:56:19;33.40;41.20
31113;DHT22;17763;48.730;9.136;2023-07-09T11:58:54;33.50;41.40
31113;DHT22;17763;48.730;9.136;2023-07-09T12:01:23;33.50;41.50
31113;DHT22;17763;48.730;9.136;2023-07-09T12:03:50;33.50;41.20
31113;DHT22;17763;48.730;9.136;2023-07-09T12:06:20;33.50;41.40
31113;DHT22;17763;48.730;9.136;2023-07-09T12:08:50;33.50;41.90
31113;DHT22;17763;48.730;9.136;2023-07-09T12:11:26;33.60;41.50
31113;DHT22;17763;48.730;9.136;2023-07-09T12:13:53;33.60;41.60
31113;DHT22;17763;48.730;9.136;2023-07-09T12:16:21;33.80;41.80
31113;DHT22;17763;48.730;9.136;2023-07-09T12:18:50;33.80;41.00
31113;DHT22;17763;48.730;9.136;2023-07-09T12:21:18;33.80;41.00
31113;DHT22;17763;48.730;9.136;2023-07-09T12:23:44;33.90;41.70
31113;DHT22;17763;48.730;9.136;2023-07-09T12:26:14;33.90;42.30
31113;DHT22;17763;48.730;9.136;2023-07-09T12:28:40;34.00;41.30
31113;DHT22;17763;48.730;9.136;2023-07-09T12:31:20;34.10;41.40
31113;DHT22;17763;48.730;9.136;2023-07-09T12:33:51;34.30;42.30
31113;DHT22;17763;48.730;9.136;2023-07-09T12:36:20;34.30;41.00
31113;DHT22;17763;48.730;9.136;2023-07-09T12:38:49;34.40;41.20
31113;DHT22;17763;48.730;9.136;2023-07-09T12:41:25;34.40;42.00
31113;DHT22;17763;48.730;9.136;2023-07-09T12:43:55;34.40;41.90
31113;DHT22;17763;48.730;9.136;2023-07-09T12:46:24;34.50;41.60
31113;DHT22;17763;48.730;9.136;2023-07-09T12:48:50;34.40;40.80
31113;DHT22;17763;48.730;9.136;2023-07-09T12:51:25;34.40;40.00
31113;DHT22;17763;48.730;9.136;2023-07-09T12:54:05;34.50;40.70
31113;DHT22;17763;48.730;9.136;2023-07-09T12:56:35;34.40;39.70
31113;DHT22;17763;48.730;9.136;2023-07-09T12:59:02;34.30;40.20
31113;DHT22;17763;48.730;9.136;2023-07-09T13:01:34;34.20;40.80
31113;DHT22;17763;48.730;9.136;2023-07-09T13:04:01;34.30;40.60
31113;DHT22;17763;48.730;9.136;2023-07-09T13:06:30;34.40;40.60
31113;DHT22;17763;48.730;9.136;2023-07-09T13:09:00;34.50;41.60
31113;DHT22;17763;48.730;9.136;2023-07-09T13:11:33;34.60;40.40
31113;DHT22;17763;48.730;9.136;2023-07-09T13:14:04;34.70;40.80
31113;DHT22;17763;48.730;9.136;2023-07-09T13:16:38;34.70;40.70
31113;DHT22;17763;48.730;9.136;2023-07-09T13:19:04;34.80;40.60
31113;DHT22;17763;48.730;9.136;2023-07-09T13:21:32;34.70;40.60
31113;DHT22;17763;48.730;9.136;2023-07-09T13:23:58;34.80;40.50
31113;DHT22;17763;48.730;9.136;2023-07-09T13:26:24;34.90;39.70
31113;DHT22;17763;48.730;9.136;2023-07-09T13:28:50;35.00;39.70
31113;DHT22;17763;48.730;9.136;2023-07-09T13:31:20;35.20;40.80
31113;DHT22;17763;48.730;9.136;2023-07-09T13:33:59;35.30;40.60
31113;DHT22;17763;48.730;9.136;2023-07-09T13:36:27;35.40;40.80
31113;DHT22;17763;48.730;9.136;2023-07-09T13:38:52;35.50;39.10
31113;DHT22;17763;48.730;9.136;2023-07-09T13:41:19;35.60;38.40
31113;DHT22;17763;48.730;9.136;2023-07-09T13:43:48;35.80;39.70
31113;DHT22;17763;48.730;9.136;2023-07-09T13:46:14;35.90;40.50
31113;DHT22;17763;48.730;9.136;2023-07-09T13:48:44;36.10;42.00
31113;DHT22;17763;48.730;9.136;2023-07-09T13:51:21;36.20;39.50
31113;DHT22;17763;48.730;9.136;2023-07-09T13:53:50;36.20;40.30
31113;DHT22;17763;48.730;9.136;2023-07-09T13:56:16;36.10;39.50
31113;DHT22;17763;48.730;9.136;2023-07-09T13:58:44;36.10;39.90
31113;DHT22;17763;48.730;9.136;2023-07-09T14:01:16;36.10;40.70
31113;DHT22;17763;48.730;9.136;2023-07-09T14:03:43;36.20;41.00
31113;DHT22;17763;48.730;9.136;2023-07-09T14:06:12;36.40;40.30
31113;DHT22;17763;48.730;9.136;2023-07-09T14:08:38;36.50;39.70
31113;DHT22;17763;48.730;9.136;2023-07-09T14:11:10;36.50;39.50
31113;DHT22;17763;48.730;9.136;2023-07-09T14:13:39;36.70;39.70
31113;DHT22;17763;48.730;9.136;2023-07-09T14:16:05;36.80;38.60
31113;DHT22;17763;48.730;9.136;2023-07-09T14:18:31;37.00;38.70
31113;DHT22;17763;48.730;9.136;2023-07-09T14:20:57;36.90;37.70
31113;DHT22;17763;48.730;9.136;2023-07-09T14:23:23;36.90;37.50
31113;DHT22;17763;48.730;9.136;2023-07-09T14:25:48;36.90;36.60
31113;DHT22;17763;48.730;9.136;2023-07-09T14:28:19;36.60;36.90
31113;DHT22;17763;48.730;9.136;2023-07-09T14:30:49;36.50;37.10
31113;DHT22;17763;48.730;9.136;2023-07-09T14:33:20;36.30;37.80
31113;DHT22;17763;48.730;9.136;2023-07-09T14:35:46;36.20;38.20
31113;DHT22;17763;48.730;9.136;2023-07-09T14:40:44;35.90;37.00
31113;DHT22;17763;48.730;9.136;2023-07-09T14:43:11;35.90;37.50
31113;DHT22;17763;48.730;9.136;2023-07-09T14:45:39;36.00;38.40
31113;DHT22;17763;48.730;9.136;2023-07-09T14:48:15;36.10;38.70
31113;DHT22;17763;48.730;9.136;2023-07-09T14:50:44;36.20;36.80
31113;DHT22;17763;48.730;9.136;2023-07-09T14:55:47;36.20;36.70
31113;DHT22;17763;48.730;9.136;2023-07-09T14:58:15;36.30;36.80
31113;DHT22;17763;48.730;9.136;2023-07-09T15:00:42;36.30;36.90
31113;DHT22;17763;48.730;9.136;2023-07-09T15:03:10;36.40;37.70
31113;DHT22;17763;48.730;9.136;2023-07-09T15:05:36;36.40;37.00
31113;DHT22;17763;48.730;9.136;2023-07-09T15:08:16;36.50;37.00
31113;DHT22;17763;48.730;9.136;2023-07-09T15:10:42;36.70;37.40
31113;DHT22;17763;48.730;9.136;2023-07-09T15:13:32;36.90;37.40
31113;DHT22;17763;48.730;9.136;2023-07-09T15:15:59;37.10;36.70
31113;DHT22;17763;48.730;9.136;2023-07-09T15:18:28;37.30;36.90
31113;DHT22;17763;48.730;9.136;2023-07-09T15:20:58;37.30;36.50
31113;DHT22;17763;48.730;9.136;2023-07-09T15:23:25;37.50;36.50
31113;DHT22;17763;48.730;9.136;2023-07-09T15:25:52;37.30;36.50
31113;DHT22;17763;48.730;9.136;2023-07-09T15:28:18;37.30;36.60
31113;DHT22;17763;48.730;9.136;2023-07-09T15:30:44;37.10;35.90
31113;DHT22;17763;48.730;9.136;2023-07-09T15:33:18;36.80;35.90
31113;DHT22;17763;48.730;9.136;2023-07-09T15:35:46;36.70;36.30
31113;DHT22;17763;48.730;9.136;2023-07-09T15:40:44;36.30;35.90
31113;DHT22;17763;48.730;9.136;2023-07-09T15:43:11;36.10;36.00
31113;DHT22;17763;48.730;9.136;2023-07-09T15:45:41;36.00;36.70
31113;DHT22;17763;48.730;9.136;2023-07-09T15:50:47;35.80;37.90
31113;DHT22;17763;48.730;9.136;2023-07-09T15:53:13;35.70;38.00
31113;DHT22;17763;48.730;9.136;2023-07-09T15:55:41;35.60;37.10
31113;DHT22;17763;48.730;9.136;2023-07-09T15:58:18;35.50;37.30
31113;DHT22;17763;48.730;9.136;2023-07-09T16:00:45;35.40;37.20
31113;DHT22;17763;48.730;9.136;2023-07-09T16:03:11;35.30;37.60
31113;DHT22;17763;48.730;9.136;2023-07-09T16:05:37;35.20;37.60
31113;DHT22;17763;48.730;9.136;2023-07-09T16:08:04;35.10;38.40
31113;DHT22;17763;48.730;9.136;2023-07-09T16:10:32;35.10;38.90
31113;DHT22;17763;48.730;9.136;2023-07-09T16:13:00;34.90;38.60
31113;DHT22;17763;48.730;9.136;2023-07-09T16:15:30;34.80;38.40
31113;DHT22;17763;48.730;9.136;2023-07-09T16:17:56;34.70;38.60
31113;DHT22;17763;48.730;9.136;2023-07-09T16:20:25;34.60;39.20
31113;DHT22;17763;48.730;9.136;2023-07-09T16:22:56;34.50;38.80
31113;DHT22;17763;48.730;9.136;2023-07-09T16:25:34;34.40;38.70